Altamont, South Dakota
Current Conditions -  °F | °C
As of 8:34 AM on Thursday 23 Oct 2014 (Local Time) from KCNB Reporting Station
Clear Clear  
Wind Chill: 45°   Ceiling: Unl
Heat Index: 49°   Visibility: 10mi
Dew Point: 44°   Wind: 10mph
Humidity: 83%   Direction: 240°WSW
Pressure: 29.99"   Gusts: NA
Location:  44.7895°N, 96.7201°W
Report Text: KCNB 231334Z AUTO 24009KT 10SM CLR 10/07 A2999 RMK AO2 T00950067
Loading
Personal Weather Stations






























Interactive Weather Map
Tropical Storm Tracking
New forecast layout! Learn more

10-Day Weather Forecast

Advertisements
Track Severe Weather on mobile